sensor_id;sensor_type;location;lat;lon;timestamp;P1;durP1;ratioP1;P2;durP2;ratioP2
59788;SDS011;47353;51.614;5.530;2022-12-24T00:01:23;35.05;;;5.03;;
59788;SDS011;47353;51.614;5.530;2022-12-24T00:03:48;39.25;;;6.45;;
59788;SDS011;47353;51.614;5.530;2022-12-24T00:06:18;31.55;;;5.30;;
59788;SDS011;47353;51.614;5.530;2022-12-24T00:08:46;33.28;;;5.60;;
59788;SDS011;47353;51.614;5.530;2022-12-24T00:11:11;31.85;;;5.75;;
59788;SDS011;47353;51.614;5.530;2022-12-24T00:13:37;32.50;;;5.68;;
59788;SDS011;47353;51.614;5.530;2022-12-24T00:16:03;31.73;;;5.43;;
59788;SDS011;47353;51.614;5.530;2022-12-24T00:18:29;36.45;;;5.47;;
59788;SDS011;47353;51.614;5.530;2022-12-24T00:20:55;30.95;;;5.03;;
59788;SDS011;47353;51.614;5.530;2022-12-24T00:23:20;26.05;;;5.15;;
59788;SDS011;47353;51.614;5.530;2022-12-24T00:25:45;22.38;;;4.97;;
59788;SDS011;47353;51.614;5.530;2022-12-24T00:28:11;34.35;;;5.97;;
59788;SDS011;47353;51.614;5.530;2022-12-24T00:30:38;34.72;;;6.20;;
59788;SDS011;47353;51.614;5.530;2022-12-24T00:33:04;36.13;;;6.13;;
59788;SDS011;47353;51.614;5.530;2022-12-24T00:35:34;30.20;;;6.15;;
59788;SDS011;47353;51.614;5.530;2022-12-24T00:38:00;36.28;;;6.30;;
59788;SDS011;47353;51.614;5.530;2022-12-24T00:40:27;33.83;;;6.45;;
59788;SDS011;47353;51.614;5.530;2022-12-24T00:42:53;37.78;;;6.38;;
59788;SDS011;47353;51.614;5.530;2022-12-24T00:45:18;31.40;;;6.88;;
59788;SDS011;47353;51.614;5.530;2022-12-24T00:47:44;43.10;;;7.07;;
59788;SDS011;47353;51.614;5.530;2022-12-24T00:50:09;30.42;;;6.50;;
59788;SDS011;47353;51.614;5.530;2022-12-24T00:52:35;36.65;;;6.97;;
59788;SDS011;47353;51.614;5.530;2022-12-24T00:55:00;36.80;;;6.63;;
59788;SDS011;47353;51.614;5.530;2022-12-24T00:57:26;35.90;;;6.63;;
59788;SDS011;47353;51.614;5.530;2022-12-24T00:59:52;29.27;;;6.63;;
59788;SDS011;47353;51.614;5.530;2022-12-24T01:02:17;29.42;;;5.95;;
59788;SDS011;47353;51.614;5.530;2022-12-24T01:04:43;31.27;;;5.75;;
59788;SDS011;47353;51.614;5.530;2022-12-24T01:07:27;33.42;;;6.55;;
59788;SDS011;47353;51.614;5.530;2022-12-24T01:09:52;22.60;;;5.55;;
59788;SDS011;47353;51.614;5.530;2022-12-24T01:12:17;29.85;;;6.95;;
59788;SDS011;47353;51.614;5.530;2022-12-24T01:14:43;29.60;;;5.95;;
59788;SDS011;47353;51.614;5.530;2022-12-24T01:17:08;28.90;;;6.28;;
59788;SDS011;47353;51.614;5.530;2022-12-24T01:19:34;35.05;;;6.43;;
59788;SDS011;47353;51.614;5.530;2022-12-24T01:21:59;35.78;;;7.30;;
59788;SDS011;47353;51.614;5.530;2022-12-24T01:24:24;37.72;;;6.85;;
59788;SDS011;47353;51.614;5.530;2022-12-24T01:26:50;31.35;;;6.00;;
59788;SDS011;47353;51.614;5.530;2022-12-24T01:29:15;28.98;;;6.63;;
59788;SDS011;47353;51.614;5.530;2022-12-24T01:31:41;29.48;;;6.80;;
59788;SDS011;47353;51.614;5.530;2022-12-24T01:34:06;40.35;;;7.47;;
59788;SDS011;47353;51.614;5.530;2022-12-24T01:36:32;38.55;;;7.45;;
59788;SDS011;47353;51.614;5.530;2022-12-24T01:38:57;32.90;;;6.70;;
59788;SDS011;47353;51.614;5.530;2022-12-24T01:41:23;36.08;;;6.45;;
59788;SDS011;47353;51.614;5.530;2022-12-24T01:44:25;30.92;;;6.13;;
59788;SDS011;47353;51.614;5.530;2022-12-24T01:46:58;34.47;;;6.10;;
59788;SDS011;47353;51.614;5.530;2022-12-24T01:49:27;33.70;;;7.40;;
59788;SDS011;47353;51.614;5.530;2022-12-24T01:52:00;37.33;;;6.60;;
59788;SDS011;47353;51.614;5.530;2022-12-24T01:57:04;39.90;;;7.18;;
59788;SDS011;47353;51.614;5.530;2022-12-24T01:59:33;37.45;;;6.93;;
59788;SDS011;47353;51.614;5.530;2022-12-24T02:02:01;41.83;;;6.65;;
59788;SDS011;47353;51.614;5.530;2022-12-24T02:07:22;26.85;;;6.55;;
59788;SDS011;47353;51.614;5.530;2022-12-24T02:09:48;32.92;;;6.90;;
59788;SDS011;47353;51.614;5.530;2022-12-24T02:12:17;37.55;;;7.57;;
59788;SDS011;47353;51.614;5.530;2022-12-24T02:14:43;29.42;;;6.80;;
59788;SDS011;47353;51.614;5.530;2022-12-24T02:17:16;38.85;;;7.43;;
59788;SDS011;47353;51.614;5.530;2022-12-24T02:31:15;33.10;;;7.32;;
59788;SDS011;47353;51.614;5.530;2022-12-24T02:33:53;33.45;;;7.28;;
59788;SDS011;47353;51.614;5.530;2022-12-24T02:36:33;37.63;;;8.38;;
59788;SDS011;47353;51.614;5.530;2022-12-24T02:39:10;41.95;;;8.18;;
59788;SDS011;47353;51.614;5.530;2022-12-24T02:41:41;33.65;;;6.95;;
59788;SDS011;47353;51.614;5.530;2022-12-24T02:44:33;32.05;;;6.53;;
59788;SDS011;47353;51.614;5.530;2022-12-24T02:47:03;32.88;;;6.85;;
59788;SDS011;47353;51.614;5.530;2022-12-24T02:49:32;39.00;;;7.75;;
59788;SDS011;47353;51.614;5.530;2022-12-24T02:51:58;32.70;;;6.70;;
59788;SDS011;47353;51.614;5.530;2022-12-24T02:54:25;40.78;;;8.05;;
59788;SDS011;47353;51.614;5.530;2022-12-24T03:05:23;34.70;;;7.10;;
59788;SDS011;47353;51.614;5.530;2022-12-24T03:13:13;35.72;;;7.60;;
59788;SDS011;47353;51.614;5.530;2022-12-24T03:15:41;36.72;;;6.60;;
59788;SDS011;47353;51.614;5.530;2022-12-24T03:18:09;41.10;;;6.63;;
59788;SDS011;47353;51.614;5.530;2022-12-24T03:20:37;39.47;;;6.93;;
59788;SDS011;47353;51.614;5.530;2022-12-24T03:23:13;40.42;;;7.30;;
59788;SDS011;47353;51.614;5.530;2022-12-24T03:25:39;37.55;;;7.47;;
59788;SDS011;47353;51.614;5.530;2022-12-24T03:28:06;39.97;;;7.13;;
59788;SDS011;47353;51.614;5.530;2022-12-24T03:30:34;36.03;;;6.53;;
59788;SDS011;47353;51.614;5.530;2022-12-24T03:33:00;40.28;;;7.25;;
59788;SDS011;47353;51.614;5.530;2022-12-24T03:35:25;36.10;;;6.63;;
59788;SDS011;47353;51.614;5.530;2022-12-24T03:37:51;39.55;;;7.53;;
59788;SDS011;47353;51.614;5.530;2022-12-24T03:40:17;29.48;;;6.32;;
59788;SDS011;47353;51.614;5.530;2022-12-24T03:42:42;40.75;;;7.90;;
59788;SDS011;47353;51.614;5.530;2022-12-24T03:45:08;33.67;;;7.13;;
59788;SDS011;47353;51.614;5.530;2022-12-24T03:47:34;34.88;;;6.78;;
59788;SDS011;47353;51.614;5.530;2022-12-24T03:49:59;32.97;;;7.28;;
59788;SDS011;47353;51.614;5.530;2022-12-24T03:52:25;40.65;;;9.02;;
59788;SDS011;47353;51.614;5.530;2022-12-24T03:54:50;35.15;;;7.50;;
59788;SDS011;47353;51.614;5.530;2022-12-24T03:57:16;34.75;;;7.07;;
59788;SDS011;47353;51.614;5.530;2022-12-24T03:59:41;34.00;;;7.93;;
59788;SDS011;47353;51.614;5.530;2022-12-24T04:02:06;30.92;;;7.32;;
59788;SDS011;47353;51.614;5.530;2022-12-24T04:04:32;34.47;;;8.55;;
59788;SDS011;47353;51.614;5.530;2022-12-24T04:07:00;27.95;;;7.78;;
59788;SDS011;47353;51.614;5.530;2022-12-24T04:09:26;29.33;;;6.90;;
59788;SDS011;47353;51.614;5.530;2022-12-24T04:11:51;29.65;;;7.63;;
59788;SDS011;47353;51.614;5.530;2022-12-24T04:14:16;36.40;;;8.15;;
59788;SDS011;47353;51.614;5.530;2022-12-24T04:16:42;36.40;;;7.75;;
59788;SDS011;47353;51.614;5.530;2022-12-24T04:19:07;34.20;;;7.00;;
59788;SDS011;47353;51.614;5.530;2022-12-24T04:21:32;30.40;;;7.80;;
59788;SDS011;47353;51.614;5.530;2022-12-24T04:23:58;41.75;;;8.13;;
59788;SDS011;47353;51.614;5.530;2022-12-24T04:26:24;33.20;;;8.48;;
59788;SDS011;47353;51.614;5.530;2022-12-24T04:28:49;34.42;;;8.13;;
59788;SDS011;47353;51.614;5.530;2022-12-24T04:31:15;32.08;;;7.45;;
59788;SDS011;47353;51.614;5.530;2022-12-24T04:33:41;27.75;;;7.18;;
59788;SDS011;47353;51.614;5.530;2022-12-24T04:36:07;31.77;;;7.45;;
59788;SDS011;47353;51.614;5.530;2022-12-24T04:38:34;31.20;;;7.43;;
59788;SDS011;47353;51.614;5.530;2022-12-24T04:41:00;35.97;;;8.23;;
59788;SDS011;47353;51.614;5.530;2022-12-24T04:43:31;33.72;;;7.80;;
59788;SDS011;47353;51.614;5.530;2022-12-24T04:46:04;30.98;;;7.30;;
59788;SDS011;47353;51.614;5.530;2022-12-24T04:48:29;34.75;;;8.60;;
59788;SDS011;47353;51.614;5.530;2022-12-24T04:50:55;35.15;;;10.73;;
59788;SDS011;47353;51.614;5.530;2022-12-24T04:53:20;34.20;;;7.85;;
59788;SDS011;47353;51.614;5.530;2022-12-24T04:55:46;27.55;;;7.63;;
59788;SDS011;47353;51.614;5.530;2022-12-24T04:58:11;38.13;;;7.82;;
59788;SDS011;47353;51.614;5.530;2022-12-24T05:00:38;27.38;;;7.35;;
59788;SDS011;47353;51.614;5.530;2022-12-24T05:03:06;33.63;;;7.28;;
59788;SDS011;47353;51.614;5.530;2022-12-24T05:05:31;39.17;;;8.50;;
59788;SDS011;47353;51.614;5.530;2022-12-24T05:07:57;33.80;;;7.38;;
59788;SDS011;47353;51.614;5.530;2022-12-24T05:10:22;31.27;;;7.32;;
59788;SDS011;47353;51.614;5.530;2022-12-24T05:12:47;30.88;;;7.30;;
59788;SDS011;47353;51.614;5.530;2022-12-24T05:15:13;36.05;;;7.47;;
59788;SDS011;47353;51.614;5.530;2022-12-24T05:17:38;29.38;;;7.05;;
59788;SDS011;47353;51.614;5.530;2022-12-24T05:20:04;35.03;;;8.00;;
59788;SDS011;47353;51.614;5.530;2022-12-24T05:22:30;35.28;;;8.30;;
59788;SDS011;47353;51.614;5.530;2022-12-24T05:25:14;23.23;;;6.85;;
59788;SDS011;47353;51.614;5.530;2022-12-24T05:27:57;36.53;;;8.40;;
59788;SDS011;47353;51.614;5.530;2022-12-24T05:30:23;33.72;;;7.38;;
59788;SDS011;47353;51.614;5.530;2022-12-24T05:32:48;26.95;;;7.40;;
59788;SDS011;47353;51.614;5.530;2022-12-24T05:35:14;36.75;;;7.00;;
59788;SDS011;47353;51.614;5.530;2022-12-24T05:37:39;32.45;;;7.00;;
59788;SDS011;47353;51.614;5.530;2022-12-24T05:40:04;32.78;;;6.53;;
59788;SDS011;47353;51.614;5.530;2022-12-24T05:42:30;29.13;;;6.43;;
59788;SDS011;47353;51.614;5.530;2022-12-24T05:44:56;31.00;;;6.03;;
59788;SDS011;47353;51.614;5.530;2022-12-24T05:47:21;32.13;;;6.82;;
59788;SDS011;47353;51.614;5.530;2022-12-24T05:49:47;35.10;;;6.93;;
59788;SDS011;47353;51.614;5.530;2022-12-24T05:52:12;32.63;;;7.38;;
59788;SDS011;47353;51.614;5.530;2022-12-24T05:54:37;34.60;;;6.28;;
59788;SDS011;47353;51.614;5.530;2022-12-24T05:57:03;28.70;;;6.32;;
59788;SDS011;47353;51.614;5.530;2022-12-24T05:59:28;30.70;;;6.90;;
59788;SDS011;47353;51.614;5.530;2022-12-24T06:01:54;38.75;;;7.38;;
59788;SDS011;47353;51.614;5.530;2022-12-24T06:04:19;29.95;;;6.72;;
59788;SDS011;47353;51.614;5.530;2022-12-24T06:06:44;34.65;;;7.70;;
59788;SDS011;47353;51.614;5.530;2022-12-24T06:09:10;28.20;;;6.70;;
59788;SDS011;47353;51.614;5.530;2022-12-24T06:11:36;33.28;;;7.35;;
59788;SDS011;47353;51.614;5.530;2022-12-24T06:14:01;35.63;;;6.80;;
59788;SDS011;47353;51.614;5.530;2022-12-24T06:16:26;33.42;;;6.75;;
59788;SDS011;47353;51.614;5.530;2022-12-24T06:18:52;31.75;;;7.60;;
59788;SDS011;47353;51.614;5.530;2022-12-24T06:21:17;34.17;;;7.40;;
59788;SDS011;47353;51.614;5.530;2022-12-24T06:23:44;27.65;;;6.55;;
59788;SDS011;47353;51.614;5.530;2022-12-24T06:26:14;34.10;;;7.45;;
59788;SDS011;47353;51.614;5.530;2022-12-24T06:28:42;33.70;;;7.38;;
59788;SDS011;47353;51.614;5.530;2022-12-24T06:31:10;33.25;;;7.13;;
59788;SDS011;47353;51.614;5.530;2022-12-24T06:33:37;31.05;;;6.70;;
59788;SDS011;47353;51.614;5.530;2022-12-24T06:36:07;31.33;;;7.13;;
59788;SDS011;47353;51.614;5.530;2022-12-24T06:38:34;32.63;;;7.57;;
59788;SDS011;47353;51.614;5.530;2022-12-24T06:40:59;31.58;;;6.70;;
59788;SDS011;47353;51.614;5.530;2022-12-24T06:43:30;36.60;;;7.75;;
59788;SDS011;47353;51.614;5.530;2022-12-24T06:45:55;37.00;;;8.15;;
59788;SDS011;47353;51.614;5.530;2022-12-24T06:48:21;28.67;;;7.05;;
59788;SDS011;47353;51.614;5.530;2022-12-24T06:50:46;31.75;;;7.57;;
59788;SDS011;47353;51.614;5.530;2022-12-24T06:53:12;36.60;;;7.47;;
59788;SDS011;47353;51.614;5.530;2022-12-24T06:55:37;34.10;;;7.88;;
59788;SDS011;47353;51.614;5.530;2022-12-24T06:58:02;30.17;;;7.88;;
59788;SDS011;47353;51.614;5.530;2022-12-24T07:00:28;27.35;;;6.97;;
59788;SDS011;47353;51.614;5.530;2022-12-24T07:02:53;33.63;;;7.97;;
59788;SDS011;47353;51.614;5.530;2022-12-24T07:05:19;32.53;;;7.57;;
59788;SDS011;47353;51.614;5.530;2022-12-24T07:07:44;36.53;;;8.00;;
59788;SDS011;47353;51.614;5.530;2022-12-24T07:10:10;29.23;;;6.93;;
59788;SDS011;47353;51.614;5.530;2022-12-24T07:12:38;29.52;;;7.22;;
59788;SDS011;47353;51.614;5.530;2022-12-24T07:15:03;40.47;;;11.23;;
59788;SDS011;47353;51.614;5.530;2022-12-24T07:17:29;31.90;;;7.50;;
59788;SDS011;47353;51.614;5.530;2022-12-24T07:19:54;33.72;;;7.38;;
59788;SDS011;47353;51.614;5.530;2022-12-24T07:22:20;37.65;;;7.63;;
59788;SDS011;47353;51.614;5.530;2022-12-24T07:24:45;36.25;;;7.93;;
59788;SDS011;47353;51.614;5.530;2022-12-24T07:27:11;36.85;;;7.35;;
59788;SDS011;47353;51.614;5.530;2022-12-24T07:29:36;28.40;;;6.85;;
59788;SDS011;47353;51.614;5.530;2022-12-24T07:32:01;29.48;;;6.82;;
59788;SDS011;47353;51.614;5.530;2022-12-24T07:34:27;34.55;;;7.20;;
59788;SDS011;47353;51.614;5.530;2022-12-24T07:36:52;32.17;;;6.63;;
59788;SDS011;47353;51.614;5.530;2022-12-24T07:39:18;34.95;;;6.90;;
59788;SDS011;47353;51.614;5.530;2022-12-24T07:41:43;36.40;;;7.47;;
59788;SDS011;47353;51.614;5.530;2022-12-24T07:44:12;34.22;;;7.05;;
59788;SDS011;47353;51.614;5.530;2022-12-24T07:46:38;37.92;;;7.10;;
59788;SDS011;47353;51.614;5.530;2022-12-24T07:49:04;39.53;;;7.30;;
59788;SDS011;47353;51.614;5.530;2022-12-24T07:51:30;44.20;;;8.90;;
59788;SDS011;47353;51.614;5.530;2022-12-24T07:53:55;33.97;;;7.25;;
59788;SDS011;47353;51.614;5.530;2022-12-24T07:56:20;43.25;;;11.25;;
59788;SDS011;47353;51.614;5.530;2022-12-24T07:58:46;31.30;;;6.28;;
59788;SDS011;47353;51.614;5.530;2022-12-24T08:01:11;35.95;;;6.80;;
59788;SDS011;47353;51.614;5.530;2022-12-24T08:03:37;38.67;;;7.45;;
59788;SDS011;47353;51.614;5.530;2022-12-24T08:06:02;34.85;;;6.90;;
59788;SDS011;47353;51.614;5.530;2022-12-24T08:08:28;40.45;;;6.85;;
59788;SDS011;47353;51.614;5.530;2022-12-24T08:10:58;33.55;;;7.00;;
59788;SDS011;47353;51.614;5.530;2022-12-24T08:13:25;31.75;;;6.32;;
59788;SDS011;47353;51.614;5.530;2022-12-24T08:15:50;31.50;;;6.63;;
59788;SDS011;47353;51.614;5.530;2022-12-24T08:18:15;38.90;;;6.63;;
59788;SDS011;47353;51.614;5.530;2022-12-24T08:20:41;44.25;;;7.20;;
59788;SDS011;47353;51.614;5.530;2022-12-24T08:23:06;34.13;;;7.07;;
59788;SDS011;47353;51.614;5.530;2022-12-24T08:25:33;35.83;;;6.95;;
59788;SDS011;47353;51.614;5.530;2022-12-24T08:27:58;31.20;;;7.00;;
59788;SDS011;47353;51.614;5.530;2022-12-24T08:30:24;41.08;;;6.68;;
59788;SDS011;47353;51.614;5.530;2022-12-24T08:32:49;41.95;;;6.93;;
59788;SDS011;47353;51.614;5.530;2022-12-24T08:35:15;28.25;;;7.10;;
59788;SDS011;47353;51.614;5.530;2022-12-24T08:37:41;29.02;;;6.10;;
59788;SDS011;47353;51.614;5.530;2022-12-24T08:40:06;34.97;;;6.25;;
59788;SDS011;47353;51.614;5.530;2022-12-24T08:42:32;30.42;;;6.20;;
59788;SDS011;47353;51.614;5.530;2022-12-24T08:44:58;26.75;;;6.53;;
59788;SDS011;47353;51.614;5.530;2022-12-24T08:47:24;34.00;;;6.45;;
59788;SDS011;47353;51.614;5.530;2022-12-24T08:49:49;32.63;;;6.93;;
59788;SDS011;47353;51.614;5.530;2022-12-24T08:52:14;34.83;;;7.45;;
59788;SDS011;47353;51.614;5.530;2022-12-24T08:54:40;37.50;;;7.15;;
59788;SDS011;47353;51.614;5.530;2022-12-24T08:57:05;34.00;;;6.70;;
59788;SDS011;47353;51.614;5.530;2022-12-24T08:59:31;35.55;;;6.97;;
59788;SDS011;47353;51.614;5.530;2022-12-24T09:01:56;46.33;;;7.43;;
59788;SDS011;47353;51.614;5.530;2022-12-24T09:04:21;30.85;;;6.97;;
59788;SDS011;47353;51.614;5.530;2022-12-24T09:06:47;34.15;;;7.88;;
59788;SDS011;47353;51.614;5.530;2022-12-24T09:09:12;33.75;;;6.97;;
59788;SDS011;47353;51.614;5.530;2022-12-24T09:11:37;29.42;;;7.10;;
59788;SDS011;47353;51.614;5.530;2022-12-24T09:14:03;35.33;;;7.80;;
59788;SDS011;47353;51.614;5.530;2022-12-24T09:16:28;37.55;;;8.20;;
59788;SDS011;47353;51.614;5.530;2022-12-24T09:18:55;34.53;;;7.70;;
59788;SDS011;47353;51.614;5.530;2022-12-24T09:21:21;37.08;;;7.82;;
59788;SDS011;47353;51.614;5.530;2022-12-24T09:23:47;32.08;;;8.15;;
59788;SDS011;47353;51.614;5.530;2022-12-24T09:26:16;32.17;;;7.65;;
59788;SDS011;47353;51.614;5.530;2022-12-24T09:28:47;35.05;;;8.07;;
59788;SDS011;47353;51.614;5.530;2022-12-24T09:31:13;34.13;;;7.10;;
59788;SDS011;47353;51.614;5.530;2022-12-24T09:33:40;38.85;;;9.00;;
59788;SDS011;47353;51.614;5.530;2022-12-24T09:36:07;36.05;;;7.90;;
59788;SDS011;47353;51.614;5.530;2022-12-24T09:38:34;32.92;;;7.60;;
59788;SDS011;47353;51.614;5.530;2022-12-24T09:41:01;36.22;;;7.70;;
59788;SDS011;47353;51.614;5.530;2022-12-24T09:43:43;28.02;;;7.43;;
59788;SDS011;47353;51.614;5.530;2022-12-24T09:48:54;34.28;;;6.97;;
59788;SDS011;47353;51.614;5.530;2022-12-24T09:51:30;30.65;;;6.85;;
59788;SDS011;47353;51.614;5.530;2022-12-24T09:56:27;32.08;;;7.22;;
59788;SDS011;47353;51.614;5.530;2022-12-24T09:59:02;33.75;;;7.00;;
59788;SDS011;47353;51.614;5.530;2022-12-24T10:01:30;33.10;;;7.50;;
59788;SDS011;47353;51.614;5.530;2022-12-24T10:03:57;32.38;;;7.05;;
59788;SDS011;47353;51.614;5.530;2022-12-24T10:06:32;37.35;;;7.30;;
59788;SDS011;47353;51.614;5.530;2022-12-24T10:12:21;32.70;;;7.45;;
59788;SDS011;47353;51.614;5.530;2022-12-24T10:15:18;25.00;;;6.93;;
59788;SDS011;47353;51.614;5.530;2022-12-24T10:17:52;32.33;;;7.32;;
59788;SDS011;47353;51.614;5.530;2022-12-24T10:20:31;32.85;;;7.85;;
59788;SDS011;47353;51.614;5.530;2022-12-24T10:25:52;27.35;;;6.88;;
59788;SDS011;47353;51.614;5.530;2022-12-24T10:28:27;31.15;;;6.90;;
59788;SDS011;47353;51.614;5.530;2022-12-24T10:30:59;29.13;;;7.10;;
59788;SDS011;47353;51.614;5.530;2022-12-24T10:33:30;34.55;;;7.53;;
59788;SDS011;47353;51.614;5.530;2022-12-24T10:36:02;35.80;;;7.28;;
59788;SDS011;47353;51.614;5.530;2022-12-24T10:38:28;34.47;;;7.25;;
59788;SDS011;47353;51.614;5.530;2022-12-24T10:40:55;26.60;;;7.07;;
59788;SDS011;47353;51.614;5.530;2022-12-24T10:43:24;29.55;;;7.10;;
59788;SDS011;47353;51.614;5.530;2022-12-24T10:45:54;29.40;;;7.57;;
59788;SDS011;47353;51.614;5.530;2022-12-24T10:48:27;32.92;;;7.43;;
59788;SDS011;47353;51.614;5.530;2022-12-24T10:51:03;34.10;;;7.10;;
59788;SDS011;47353;51.614;5.530;2022-12-24T10:53:35;36.80;;;7.70;;
59788;SDS011;47353;51.614;5.530;2022-12-24T10:56:06;31.02;;;7.55;;
59788;SDS011;47353;51.614;5.530;2022-12-24T10:58:41;37.20;;;7.47;;
59788;SDS011;47353;51.614;5.530;2022-12-24T11:01:09;35.72;;;8.25;;
59788;SDS011;47353;51.614;5.530;2022-12-24T11:03:35;35.00;;;7.70;;
59788;SDS011;47353;51.614;5.530;2022-12-24T11:06:06;31.30;;;7.55;;
59788;SDS011;47353;51.614;5.530;2022-12-24T11:08:35;35.25;;;7.68;;
59788;SDS011;47353;51.614;5.530;2022-12-24T11:11:15;40.70;;;7.95;;
59788;SDS011;47353;51.614;5.530;2022-12-24T11:16:25;39.47;;;7.25;;
59788;SDS011;47353;51.614;5.530;2022-12-24T11:18:57;36.97;;;7.78;;
59788;SDS011;47353;51.614;5.530;2022-12-24T11:21:26;32.38;;;8.05;;
59788;SDS011;47353;51.614;5.530;2022-12-24T11:23:54;31.98;;;8.15;;
59788;SDS011;47353;51.614;5.530;2022-12-24T11:26:26;28.88;;;7.63;;
59788;SDS011;47353;51.614;5.530;2022-12-24T11:31:44;33.72;;;7.50;;
59788;SDS011;47353;51.614;5.530;2022-12-24T11:34:20;39.95;;;7.72;;
59788;SDS011;47353;51.614;5.530;2022-12-24T11:36:54;35.20;;;7.30;;
59788;SDS011;47353;51.614;5.530;2022-12-24T11:39:37;31.27;;;7.70;;
59788;SDS011;47353;51.614;5.530;2022-12-24T11:42:19;28.80;;;6.95;;
59788;SDS011;47353;51.614;5.530;2022-12-24T11:44:47;25.88;;;7.07;;
59788;SDS011;47353;51.614;5.530;2022-12-24T11:47:13;27.05;;;6.55;;
59788;SDS011;47353;51.614;5.530;2022-12-24T11:49:38;28.95;;;7.53;;
59788;SDS011;47353;51.614;5.530;2022-12-24T11:54:48;33.55;;;7.25;;
59788;SDS011;47353;51.614;5.530;2022-12-24T11:57:22;35.83;;;7.03;;
59788;SDS011;47353;51.614;5.530;2022-12-24T11:59:54;30.30;;;7.22;;
59788;SDS011;47353;51.614;5.530;2022-12-24T12:02:36;26.30;;;6.75;;
59788;SDS011;47353;51.614;5.530;2022-12-24T12:05:26;28.30;;;6.95;;
59788;SDS011;47353;51.614;5.530;2022-12-24T12:08:07;28.80;;;7.28;;
59788;SDS011;47353;51.614;5.530;2022-12-24T12:10:39;33.05;;;7.15;;
59788;SDS011;47353;51.614;5.530;2022-12-24T12:13:21;31.27;;;7.65;;
59788;SDS011;47353;51.614;5.530;2022-12-24T12:16:05;27.70;;;6.55;;
59788;SDS011;47353;51.614;5.530;2022-12-24T12:19:38;31.08;;;7.18;;
59788;SDS011;47353;51.614;5.530;2022-12-24T12:22:15;24.83;;;6.50;;
59788;SDS011;47353;51.614;5.530;2022-12-24T12:24:59;25.90;;;6.47;;
59788;SDS011;47353;51.614;5.530;2022-12-24T12:27:34;25.02;;;6.55;;
59788;SDS011;47353;51.614;5.530;2022-12-24T12:30:05;25.85;;;6.57;;
59788;SDS011;47353;51.614;5.530;2022-12-24T12:32:47;32.33;;;7.30;;
59788;SDS011;47353;51.614;5.530;2022-12-24T12:35:22;25.73;;;5.97;;
59788;SDS011;47353;51.614;5.530;2022-12-24T12:38:01;30.75;;;7.00;;
59788;SDS011;47353;51.614;5.530;2022-12-24T12:50:57;28.20;;;6.60;;
59788;SDS011;47353;51.614;5.530;2022-12-24T12:53:38;32.45;;;6.80;;
59788;SDS011;47353;51.614;5.530;2022-12-24T12:56:31;25.35;;;6.10;;
59788;SDS011;47353;51.614;5.530;2022-12-24T13:10:02;21.60;;;5.82;;
59788;SDS011;47353;51.614;5.530;2022-12-24T13:18:19;22.95;;;6.40;;
59788;SDS011;47353;51.614;5.530;2022-12-24T13:21:14;23.08;;;7.03;;
59788;SDS011;47353;51.614;5.530;2022-12-24T13:23:42;21.60;;;6.80;;
59788;SDS011;47353;51.614;5.530;2022-12-24T13:26:09;27.67;;;7.53;;
59788;SDS011;47353;51.614;5.530;2022-12-24T13:28:37;28.40;;;7.03;;
59788;SDS011;47353;51.614;5.530;2022-12-24T13:33:57;22.05;;;6.88;;
59788;SDS011;47353;51.614;5.530;2022-12-24T13:36:24;25.05;;;7.25;;
59788;SDS011;47353;51.614;5.530;2022-12-24T13:38:53;28.48;;;7.47;;
59788;SDS011;47353;51.614;5.530;2022-12-24T13:49:19;21.85;;;6.13;;
59788;SDS011;47353;51.614;5.530;2022-12-24T13:51:46;24.15;;;6.80;;
59788;SDS011;47353;51.614;5.530;2022-12-24T13:54:14;24.23;;;6.47;;
59788;SDS011;47353;51.614;5.530;2022-12-24T13:56:44;23.90;;;6.53;;
59788;SDS011;47353;51.614;5.530;2022-12-24T13:59:22;26.90;;;7.03;;
59788;SDS011;47353;51.614;5.530;2022-12-24T14:01:49;24.55;;;6.78;;
59788;SDS011;47353;51.614;5.530;2022-12-24T14:04:25;23.55;;;7.20;;
59788;SDS011;47353;51.614;5.530;2022-12-24T14:06:56;25.58;;;7.20;;
59788;SDS011;47353;51.614;5.530;2022-12-24T14:09:25;23.85;;;6.78;;
59788;SDS011;47353;51.614;5.530;2022-12-24T14:15:54;22.70;;;7.68;;
59788;SDS011;47353;51.614;5.530;2022-12-24T14:19:09;26.80;;;7.53;;
59788;SDS011;47353;51.614;5.530;2022-12-24T14:21:44;22.77;;;7.32;;
59788;SDS011;47353;51.614;5.530;2022-12-24T14:24:25;26.80;;;7.47;;
59788;SDS011;47353;51.614;5.530;2022-12-24T14:27:27;23.05;;;7.40;;
59788;SDS011;47353;51.614;5.530;2022-12-24T14:32:50;21.52;;;6.95;;
59788;SDS011;47353;51.614;5.530;2022-12-24T14:38:37;26.13;;;7.97;;
59788;SDS011;47353;51.614;5.530;2022-12-24T14:56:20;30.40;;;9.27;;
59788;SDS011;47353;51.614;5.530;2022-12-24T14:58:54;25.05;;;9.57;;
59788;SDS011;47353;51.614;5.530;2022-12-24T15:04:04;30.08;;;10.70;;
59788;SDS011;47353;51.614;5.530;2022-12-24T15:06:50;25.05;;;10.35;;
59788;SDS011;47353;51.614;5.530;2022-12-24T15:09:29;32.15;;;10.52;;
59788;SDS011;47353;51.614;5.530;2022-12-24T15:12:05;32.13;;;10.55;;
59788;SDS011;47353;51.614;5.530;2022-12-24T15:14:47;31.30;;;11.10;;
59788;SDS011;47353;51.614;5.530;2022-12-24T15:17:16;26.50;;;10.95;;
59788;SDS011;47353;51.614;5.530;2022-12-24T15:19:47;32.30;;;11.30;;
59788;SDS011;47353;51.614;5.530;2022-12-24T15:22:37;31.50;;;10.70;;
59788;SDS011;47353;51.614;5.530;2022-12-24T15:25:36;32.10;;;10.57;;
59788;SDS011;47353;51.614;5.530;2022-12-24T15:28:16;31.13;;;10.40;;
59788;SDS011;47353;51.614;5.530;2022-12-24T15:40:20;37.22;;;11.15;;
59788;SDS011;47353;51.614;5.530;2022-12-24T15:42:57;33.47;;;11.10;;
59788;SDS011;47353;51.614;5.530;2022-12-24T15:45:31;23.25;;;10.65;;
59788;SDS011;47353;51.614;5.530;2022-12-24T15:48:07;31.52;;;10.93;;
59788;SDS011;47353;51.614;5.530;2022-12-24T15:50:54;31.27;;;10.85;;
59788;SDS011;47353;51.614;5.530;2022-12-24T15:53:34;32.90;;;11.02;;
59788;SDS011;47353;51.614;5.530;2022-12-24T16:01:51;34.30;;;11.93;;
59788;SDS011;47353;51.614;5.530;2022-12-24T16:04:21;34.78;;;11.15;;
59788;SDS011;47353;51.614;5.530;2022-12-24T16:09:42;37.50;;;10.90;;
59788;SDS011;47353;51.614;5.530;2022-12-24T16:12:22;30.63;;;11.07;;
59788;SDS011;47353;51.614;5.530;2022-12-24T16:14:56;31.10;;;10.75;;
59788;SDS011;47353;51.614;5.530;2022-12-24T16:18:18;35.67;;;11.95;;
59788;SDS011;47353;51.614;5.530;2022-12-24T16:21:08;37.13;;;12.85;;
59788;SDS011;47353;51.614;5.530;2022-12-24T16:23:38;36.40;;;13.27;;
59788;SDS011;47353;51.614;5.530;2022-12-24T16:26:15;41.90;;;14.98;;
59788;SDS011;47353;51.614;5.530;2022-12-24T16:28:50;34.42;;;14.20;;
59788;SDS011;47353;51.614;5.530;2022-12-24T16:34:09;32.28;;;13.93;;
59788;SDS011;47353;51.614;5.530;2022-12-24T16:36:45;29.55;;;11.88;;
59788;SDS011;47353;51.614;5.530;2022-12-24T16:39:12;31.73;;;10.93;;
59788;SDS011;47353;51.614;5.530;2022-12-24T16:41:59;38.55;;;10.38;;
59788;SDS011;47353;51.614;5.530;2022-12-24T16:44:48;36.78;;;9.40;;
59788;SDS011;47353;51.614;5.530;2022-12-24T16:47:27;35.85;;;9.50;;
59788;SDS011;47353;51.614;5.530;2022-12-24T16:50:02;39.10;;;10.50;;
59788;SDS011;47353;51.614;5.530;2022-12-24T16:52:35;29.60;;;9.55;;
59788;SDS011;47353;51.614;5.530;2022-12-24T16:55:04;45.88;;;10.07;;
59788;SDS011;47353;51.614;5.530;2022-12-24T16:57:33;32.20;;;9.25;;
59788;SDS011;47353;51.614;5.530;2022-12-24T17:00:01;37.47;;;10.00;;
59788;SDS011;47353;51.614;5.530;2022-12-24T17:02:34;34.03;;;9.85;;
59788;SDS011;47353;51.614;5.530;2022-12-24T17:05:05;34.55;;;10.38;;
59788;SDS011;47353;51.614;5.530;2022-12-24T17:07:31;44.35;;;13.95;;